Terminal Aerodrome Forecast
Issued by NWS

Home | Current Version | Previous Version | Text Only | Print | Product List | Glossary On
Versions: 1 2 3 4 5 6 7 8 9 10 11 12 13 14 15 16
150
FTUS44 KTSA 230520
TAFFYV
TAF
KFYV 230520Z 2306/2406 VRB03KT P6SM VCSH SCT050 BKN100
     FM231100 23003KT 4SM BR OVC012
     FM231600 32008KT P6SM BKN025
     FM231900 32010G16KT P6SM BKN040
      TEMPO 2320/2323 4SM -TSRA BKN030CB
     FM240100 31005KT P6SM BKN100=

USA.gov is the U.S. government's official web portal to all federal, state and local government web resources and services.